sensor_id;sensor_type;location;lat;lon;timestamp;temperature;humidity
5605;DHT22;9297;47.258;11.362;2024-02-23T00:02:08;11.90;46.10
5605;DHT22;9297;47.258;11.362;2024-02-23T00:04:35;11.90;45.80
5605;DHT22;9297;47.258;11.362;2024-02-23T00:07:02;12.00;45.50
5605;DHT22;9297;47.258;11.362;2024-02-23T00:09:29;11.90;47.70
5605;DHT22;9297;47.258;11.362;2024-02-23T00:11:58;11.80;49.00
5605;DHT22;9297;47.258;11.362;2024-02-23T00:14:25;11.70;50.20
5605;DHT22;9297;47.258;11.362;2024-02-23T00:16:52;11.70;51.00
5605;DHT22;9297;47.258;11.362;2024-02-23T00:19:48;11.50;54.00
5605;DHT22;9297;47.258;11.362;2024-02-23T00:22:16;13.50;99.90
5605;DHT22;9297;47.258;11.362;2024-02-23T00:24:44;14.10;88.70
5605;DHT22;9297;47.258;11.362;2024-02-23T00:27:15;14.10;79.10
5605;DHT22;9297;47.258;11.362;2024-02-23T00:29:44;13.70;69.70
5605;DHT22;9297;47.258;11.362;2024-02-23T00:32:11;13.00;58.20
5605;DHT22;9297;47.258;11.362;2024-02-23T00:34:38;12.70;57.40
5605;DHT22;9297;47.258;11.362;2024-02-23T00:37:05;12.60;58.10
5605;DHT22;9297;47.258;11.362;2024-02-23T00:39:32;12.30;58.10
5605;DHT22;9297;47.258;11.362;2024-02-23T00:41:59;12.20;58.70
5605;DHT22;9297;47.258;11.362;2024-02-23T00:44:27;11.80;60.20
5605;DHT22;9297;47.258;11.362;2024-02-23T00:46:55;11.60;62.20
5605;DHT22;9297;47.258;11.362;2024-02-23T00:49:22;11.50;63.20
5605;DHT22;9297;47.258;11.362;2024-02-23T00:51:49;11.40;63.50
5605;DHT22;9297;47.258;11.362;2024-02-23T00:54:16;11.30;63.90
5605;DHT22;9297;47.258;11.362;2024-02-23T00:56:42;11.30;63.80
5605;DHT22;9297;47.258;11.362;2024-02-23T00:59:17;11.30;64.50
5605;DHT22;9297;47.258;11.362;2024-02-23T01:01:46;11.30;63.70
5605;DHT22;9297;47.258;11.362;2024-02-23T01:04:13;11.30;64.10
5605;DHT22;9297;47.258;11.362;2024-02-23T01:06:40;11.20;64.90
5605;DHT22;9297;47.258;11.362;2024-02-23T01:09:07;11.10;66.10
5605;DHT22;9297;47.258;11.362;2024-02-23T01:11:34;10.80;68.80
5605;DHT22;9297;47.258;11.362;2024-02-23T01:14:01;10.80;69.70
5605;DHT22;9297;47.258;11.362;2024-02-23T01:16:28;10.70;71.10
5605;DHT22;9297;47.258;11.362;2024-02-23T01:18:56;10.70;72.50
5605;DHT22;9297;47.258;11.362;2024-02-23T01:21:23;10.60;73.30
5605;DHT22;9297;47.258;11.362;2024-02-23T01:23:50;10.60;73.70
5605;DHT22;9297;47.258;11.362;2024-02-23T01:26:17;10.50;73.80
5605;DHT22;9297;47.258;11.362;2024-02-23T01:28:44;10.60;72.50
5605;DHT22;9297;47.258;11.362;2024-02-23T01:31:11;10.70;71.90
5605;DHT22;9297;47.258;11.362;2024-02-23T01:33:39;10.70;71.80
5605;DHT22;9297;47.258;11.362;2024-02-23T01:36:08;10.70;72.10
5605;DHT22;9297;47.258;11.362;2024-02-23T01:38:35;10.60;72.90
5605;DHT22;9297;47.258;11.362;2024-02-23T01:41:02;10.60;72.90
5605;DHT22;9297;47.258;11.362;2024-02-23T01:43:29;10.60;72.80
5605;DHT22;9297;47.258;11.362;2024-02-23T01:45:56;10.50;72.80
5605;DHT22;9297;47.258;11.362;2024-02-23T01:48:23;10.50;73.60
5605;DHT22;9297;47.258;11.362;2024-02-23T01:50:50;10.40;73.30
5605;DHT22;9297;47.258;11.362;2024-02-23T01:53:19;10.30;74.60
5605;DHT22;9297;47.258;11.362;2024-02-23T01:55:47;10.10;75.70
5605;DHT22;9297;47.258;11.362;2024-02-23T01:58:15;10.10;75.70
5605;DHT22;9297;47.258;11.362;2024-02-23T02:00:42;10.20;75.70
5605;DHT22;9297;47.258;11.362;2024-02-23T02:03:09;10.20;75.50
5605;DHT22;9297;47.258;11.362;2024-02-23T02:05:39;10.20;74.20
5605;DHT22;9297;47.258;11.362;2024-02-23T02:08:06;10.20;72.90
5605;DHT22;9297;47.258;11.362;2024-02-23T02:10:35;10.20;72.50
5605;DHT22;9297;47.258;11.362;2024-02-23T02:13:02;10.10;72.70
5605;DHT22;9297;47.258;11.362;2024-02-23T02:15:30;10.00;71.60
5605;DHT22;9297;47.258;11.362;2024-02-23T02:17:56;9.90;70.90
5605;DHT22;9297;47.258;11.362;2024-02-23T02:20:25;9.80;70.10
5605;DHT22;9297;47.258;11.362;2024-02-23T02:22:52;9.70;68.20
5605;DHT22;9297;47.258;11.362;2024-02-23T02:25:19;9.60;67.60
5605;DHT22;9297;47.258;11.362;2024-02-23T02:27:47;9.60;67.70
5605;DHT22;9297;47.258;11.362;2024-02-23T02:30:14;9.50;68.20
5605;DHT22;9297;47.258;11.362;2024-02-23T02:32:42;9.40;68.60
5605;DHT22;9297;47.258;11.362;2024-02-23T02:35:10;9.30;68.60
5605;DHT22;9297;47.258;11.362;2024-02-23T02:37:38;9.40;68.50
5605;DHT22;9297;47.258;11.362;2024-02-23T02:40:06;9.30;68.40
5605;DHT22;9297;47.258;11.362;2024-02-23T02:42:33;9.20;69.20
5605;DHT22;9297;47.258;11.362;2024-02-23T02:45:01;9.20;69.00
5605;DHT22;9297;47.258;11.362;2024-02-23T02:47:28;9.10;69.20
5605;DHT22;9297;47.258;11.362;2024-02-23T02:49:56;9.10;69.20
5605;DHT22;9297;47.258;11.362;2024-02-23T02:52:23;9.00;68.80
5605;DHT22;9297;47.258;11.362;2024-02-23T02:54:50;9.00;68.60
5605;DHT22;9297;47.258;11.362;2024-02-23T02:57:17;9.00;68.40
5605;DHT22;9297;47.258;11.362;2024-02-23T02:59:44;9.00;68.00
5605;DHT22;9297;47.258;11.362;2024-02-23T03:02:12;8.90;67.90
5605;DHT22;9297;47.258;11.362;2024-02-23T03:04:46;8.90;67.90
5605;DHT22;9297;47.258;11.362;2024-02-23T03:07:14;8.80;67.10
5605;DHT22;9297;47.258;11.362;2024-02-23T03:09:41;8.90;67.70
5605;DHT22;9297;47.258;11.362;2024-02-23T03:12:08;8.80;68.10
5605;DHT22;9297;47.258;11.362;2024-02-23T03:14:35;8.80;68.50
5605;DHT22;9297;47.258;11.362;2024-02-23T03:17:04;8.80;69.00
5605;DHT22;9297;47.258;11.362;2024-02-23T03:19:33;8.80;69.00
5605;DHT22;9297;47.258;11.362;2024-02-23T03:22:00;8.80;69.50
5605;DHT22;9297;47.258;11.362;2024-02-23T03:24:27;8.60;70.00
5605;DHT22;9297;47.258;11.362;2024-02-23T03:26:54;8.70;70.60
5605;DHT22;9297;47.258;11.362;2024-02-23T03:29:21;8.60;70.60
5605;DHT22;9297;47.258;11.362;2024-02-23T03:31:48;8.60;71.90
5605;DHT22;9297;47.258;11.362;2024-02-23T03:34:15;8.30;73.00
5605;DHT22;9297;47.258;11.362;2024-02-23T03:36:43;8.40;73.30
5605;DHT22;9297;47.258;11.362;2024-02-23T03:39:10;8.30;74.50
5605;DHT22;9297;47.258;11.362;2024-02-23T03:41:37;8.30;75.50
5605;DHT22;9297;47.258;11.362;2024-02-23T03:44:04;8.30;74.80
5605;DHT22;9297;47.258;11.362;2024-02-23T03:46:32;8.20;76.20
5605;DHT22;9297;47.258;11.362;2024-02-23T03:48:59;8.10;76.90
5605;DHT22;9297;47.258;11.362;2024-02-23T03:51:26;8.10;77.30
5605;DHT22;9297;47.258;11.362;2024-02-23T03:53:54;8.00;77.90
5605;DHT22;9297;47.258;11.362;2024-02-23T03:56:21;8.20;77.20
5605;DHT22;9297;47.258;11.362;2024-02-23T03:58:48;8.10;77.90
5605;DHT22;9297;47.258;11.362;2024-02-23T04:01:16;8.00;78.90
5605;DHT22;9297;47.258;11.362;2024-02-23T04:03:43;7.90;81.30
5605;DHT22;9297;47.258;11.362;2024-02-23T04:06:10;7.80;81.20
5605;DHT22;9297;47.258;11.362;2024-02-23T04:08:37;7.70;81.40
5605;DHT22;9297;47.258;11.362;2024-02-23T04:11:06;7.70;81.60
5605;DHT22;9297;47.258;11.362;2024-02-23T04:13:33;7.60;83.00
5605;DHT22;9297;47.258;11.362;2024-02-23T04:16:00;7.50;82.60
5605;DHT22;9297;47.258;11.362;2024-02-23T04:18:27;7.60;83.70
5605;DHT22;9297;47.258;11.362;2024-02-23T04:20:54;7.70;84.00
5605;DHT22;9297;47.258;11.362;2024-02-23T04:23:21;7.50;83.30
5605;DHT22;9297;47.258;11.362;2024-02-23T04:25:48;7.20;83.20
5605;DHT22;9297;47.258;11.362;2024-02-23T04:28:16;7.20;85.90
5605;DHT22;9297;47.258;11.362;2024-02-23T04:30:43;7.30;85.70
5605;DHT22;9297;47.258;11.362;2024-02-23T04:33:10;7.30;85.60
5605;DHT22;9297;47.258;11.362;2024-02-23T04:35:38;7.10;87.50
5605;DHT22;9297;47.258;11.362;2024-02-23T04:38:05;7.10;88.60
5605;DHT22;9297;47.258;11.362;2024-02-23T04:40:32;7.10;88.80
5605;DHT22;9297;47.258;11.362;2024-02-23T04:42:59;7.20;88.90
5605;DHT22;9297;47.258;11.362;2024-02-23T04:45:27;7.20;89.80
5605;DHT22;9297;47.258;11.362;2024-02-23T04:47:54;7.10;89.00
5605;DHT22;9297;47.258;11.362;2024-02-23T04:50:21;7.10;88.30
5605;DHT22;9297;47.258;11.362;2024-02-23T04:52:48;7.10;88.80
5605;DHT22;9297;47.258;11.362;2024-02-23T04:55:15;7.10;88.30
5605;DHT22;9297;47.258;11.362;2024-02-23T04:57:42;7.00;89.00
5605;DHT22;9297;47.258;11.362;2024-02-23T05:00:10;6.90;89.00
5605;DHT22;9297;47.258;11.362;2024-02-23T05:02:38;7.00;89.50
5605;DHT22;9297;47.258;11.362;2024-02-23T05:05:07;7.00;89.50
5605;DHT22;9297;47.258;11.362;2024-02-23T05:07:34;7.00;89.00
5605;DHT22;9297;47.258;11.362;2024-02-23T05:10:01;7.00;88.40
5605;DHT22;9297;47.258;11.362;2024-02-23T05:12:28;6.90;90.20
5605;DHT22;9297;47.258;11.362;2024-02-23T05:14:55;6.90;90.60
5605;DHT22;9297;47.258;11.362;2024-02-23T05:17:22;6.90;90.30
5605;DHT22;9297;47.258;11.362;2024-02-23T05:19:50;7.00;91.60
5605;DHT22;9297;47.258;11.362;2024-02-23T05:22:17;7.00;92.50
5605;DHT22;9297;47.258;11.362;2024-02-23T05:24:44;7.00;94.00
5605;DHT22;9297;47.258;11.362;2024-02-23T05:27:11;7.00;94.10
5605;DHT22;9297;47.258;11.362;2024-02-23T05:29:38;7.10;92.60
5605;DHT22;9297;47.258;11.362;2024-02-23T05:32:05;7.10;93.10
5605;DHT22;9297;47.258;11.362;2024-02-23T05:34:32;7.10;93.40
5605;DHT22;9297;47.258;11.362;2024-02-23T05:37:01;7.10;96.70
5605;DHT22;9297;47.258;11.362;2024-02-23T05:39:28;7.20;96.50
5605;DHT22;9297;47.258;11.362;2024-02-23T05:41:55;7.20;92.50
5605;DHT22;9297;47.258;11.362;2024-02-23T05:44:22;7.20;95.30
5605;DHT22;9297;47.258;11.362;2024-02-23T05:46:49;7.20;95.40
5605;DHT22;9297;47.258;11.362;2024-02-23T05:49:16;7.30;93.70
5605;DHT22;9297;47.258;11.362;2024-02-23T05:51:43;7.30;93.00
5605;DHT22;9297;47.258;11.362;2024-02-23T05:54:11;7.20;91.90
5605;DHT22;9297;47.258;11.362;2024-02-23T05:56:38;7.10;93.50
5605;DHT22;9297;47.258;11.362;2024-02-23T05:59:05;7.20;93.50
5605;DHT22;9297;47.258;11.362;2024-02-23T06:01:32;7.10;94.20
5605;DHT22;9297;47.258;11.362;2024-02-23T06:03:59;7.10;92.10
5605;DHT22;9297;47.258;11.362;2024-02-23T06:06:26;7.00;93.50
5605;DHT22;9297;47.258;11.362;2024-02-23T06:08:53;7.10;92.70
5605;DHT22;9297;47.258;11.362;2024-02-23T06:11:22;7.00;93.60
5605;DHT22;9297;47.258;11.362;2024-02-23T06:13:49;7.90;99.90
5605;DHT22;9297;47.258;11.362;2024-02-23T06:16:16;7.80;99.90
5605;DHT22;9297;47.258;11.362;2024-02-23T06:18:43;8.80;99.90
5605;DHT22;9297;47.258;11.362;2024-02-23T06:21:13;9.90;99.90
5605;DHT22;9297;47.258;11.362;2024-02-23T06:23:40;9.90;96.40
5605;DHT22;9297;47.258;11.362;2024-02-23T06:26:07;10.60;90.60
5605;DHT22;9297;47.258;11.362;2024-02-23T06:28:36;10.80;85.80
5605;DHT22;9297;47.258;11.362;2024-02-23T06:31:03;10.00;73.90
5605;DHT22;9297;47.258;11.362;2024-02-23T06:33:30;9.00;76.70
5605;DHT22;9297;47.258;11.362;2024-02-23T06:35:58;8.60;81.00
5605;DHT22;9297;47.258;11.362;2024-02-23T06:38:25;8.00;80.80
5605;DHT22;9297;47.258;11.362;2024-02-23T06:40:57;7.60;84.00
5605;DHT22;9297;47.258;11.362;2024-02-23T06:43:31;7.30;88.00
5605;DHT22;9297;47.258;11.362;2024-02-23T06:46:04;7.20;87.80
5605;DHT22;9297;47.258;11.362;2024-02-23T06:48:31;7.10;88.40
5605;DHT22;9297;47.258;11.362;2024-02-23T06:50:58;6.90;90.50
5605;DHT22;9297;47.258;11.362;2024-02-23T06:53:25;6.70;90.80
5605;DHT22;9297;47.258;11.362;2024-02-23T06:55:52;6.80;91.10
5605;DHT22;9297;47.258;11.362;2024-02-23T06:58:20;6.80;91.90
5605;DHT22;9297;47.258;11.362;2024-02-23T07:00:47;6.70;89.20
5605;DHT22;9297;47.258;11.362;2024-02-23T07:03:16;6.30;90.10
5605;DHT22;9297;47.258;11.362;2024-02-23T07:05:43;5.90;94.80
5605;DHT22;9297;47.258;11.362;2024-02-23T07:08:10;6.10;93.50
5605;DHT22;9297;47.258;11.362;2024-02-23T07:10:37;5.90;94.80
5605;DHT22;9297;47.258;11.362;2024-02-23T07:13:04;5.90;93.80
5605;DHT22;9297;47.258;11.362;2024-02-23T07:15:33;5.80;92.50
5605;DHT22;9297;47.258;11.362;2024-02-23T07:18:00;5.80;91.30
5605;DHT22;9297;47.258;11.362;2024-02-23T07:20:28;5.70;91.40
5605;DHT22;9297;47.258;11.362;2024-02-23T07:22:55;5.70;90.90
5605;DHT22;9297;47.258;11.362;2024-02-23T07:25:23;5.70;92.00
5605;DHT22;9297;47.258;11.362;2024-02-23T07:27:50;5.60;92.20
5605;DHT22;9297;47.258;11.362;2024-02-23T07:30:17;5.50;91.70
5605;DHT22;9297;47.258;11.362;2024-02-23T07:32:44;5.60;93.40
5605;DHT22;9297;47.258;11.362;2024-02-23T07:35:16;5.70;93.50
5605;DHT22;9297;47.258;11.362;2024-02-23T07:37:45;5.70;93.40
5605;DHT22;9297;47.258;11.362;2024-02-23T07:40:12;5.80;92.40
5605;DHT22;9297;47.258;11.362;2024-02-23T07:42:38;5.60;90.90
5605;DHT22;9297;47.258;11.362;2024-02-23T07:45:07;5.50;91.20
5605;DHT22;9297;47.258;11.362;2024-02-23T07:47:34;5.50;91.50
5605;DHT22;9297;47.258;11.362;2024-02-23T07:50:01;5.40;90.60
5605;DHT22;9297;47.258;11.362;2024-02-23T07:52:28;5.40;90.50
5605;DHT22;9297;47.258;11.362;2024-02-23T07:54:56;5.10;90.70
5605;DHT22;9297;47.258;11.362;2024-02-23T07:57:24;5.10;92.20
5605;DHT22;9297;47.258;11.362;2024-02-23T07:59:51;5.10;91.90
5605;DHT22;9297;47.258;11.362;2024-02-23T08:02:17;5.10;91.30
5605;DHT22;9297;47.258;11.362;2024-02-23T08:04:44;5.10;91.70
5605;DHT22;9297;47.258;11.362;2024-02-23T08:07:11;5.10;90.40
5605;DHT22;9297;47.258;11.362;2024-02-23T08:09:38;5.00;89.60
5605;DHT22;9297;47.258;11.362;2024-02-23T08:12:08;5.00;90.60
5605;DHT22;9297;47.258;11.362;2024-02-23T08:14:35;5.00;90.10
5605;DHT22;9297;47.258;11.362;2024-02-23T08:17:02;5.00;90.00
5605;DHT22;9297;47.258;11.362;2024-02-23T08:19:29;5.00;90.00
5605;DHT22;9297;47.258;11.362;2024-02-23T08:21:56;4.80;90.10
5605;DHT22;9297;47.258;11.362;2024-02-23T08:24:23;4.80;90.60
5605;DHT22;9297;47.258;11.362;2024-02-23T08:26:50;4.40;93.30
5605;DHT22;9297;47.258;11.362;2024-02-23T08:29:18;4.50;92.80
5605;DHT22;9297;47.258;11.362;2024-02-23T08:31:45;4.40;92.30
5605;DHT22;9297;47.258;11.362;2024-02-23T08:34:12;4.50;92.70
5605;DHT22;9297;47.258;11.362;2024-02-23T08:36:40;4.40;93.10
5605;DHT22;9297;47.258;11.362;2024-02-23T08:39:07;4.40;92.90
5605;DHT22;9297;47.258;11.362;2024-02-23T08:41:34;4.40;93.80
5605;DHT22;9297;47.258;11.362;2024-02-23T08:44:01;4.50;93.00
5605;DHT22;9297;47.258;11.362;2024-02-23T08:46:29;4.50;92.40
5605;DHT22;9297;47.258;11.362;2024-02-23T08:48:56;4.40;94.00
5605;DHT22;9297;47.258;11.362;2024-02-23T08:51:23;4.40;94.20
5605;DHT22;9297;47.258;11.362;2024-02-23T08:53:50;4.20;94.30
5605;DHT22;9297;47.258;11.362;2024-02-23T08:56:17;4.20;95.90
5605;DHT22;9297;47.258;11.362;2024-02-23T08:58:44;4.10;96.10
5605;DHT22;9297;47.258;11.362;2024-02-23T09:01:11;4.30;94.90
5605;DHT22;9297;47.258;11.362;2024-02-23T09:03:39;4.30;94.20
5605;DHT22;9297;47.258;11.362;2024-02-23T09:06:06;4.20;94.40
5605;DHT22;9297;47.258;11.362;2024-02-23T09:08:33;4.20;94.20
5605;DHT22;9297;47.258;11.362;2024-02-23T09:11:01;4.10;95.30
5605;DHT22;9297;47.258;11.362;2024-02-23T09:13:28;4.00;96.10
5605;DHT22;9297;47.258;11.362;2024-02-23T09:15:55;3.90;95.90
5605;DHT22;9297;47.258;11.362;2024-02-23T09:18:22;3.80;97.70
5605;DHT22;9297;47.258;11.362;2024-02-23T09:20:50;3.80;99.60
5605;DHT22;9297;47.258;11.362;2024-02-23T09:23:17;3.90;97.90
5605;DHT22;9297;47.258;11.362;2024-02-23T09:25:44;3.90;98.50
5605;DHT22;9297;47.258;11.362;2024-02-23T09:28:11;3.80;97.60
5605;DHT22;9297;47.258;11.362;2024-02-23T09:30:38;3.80;98.40
5605;DHT22;9297;47.258;11.362;2024-02-23T09:33:06;3.80;98.60
5605;DHT22;9297;47.258;11.362;2024-02-23T09:35:33;3.80;98.40
5605;DHT22;9297;47.258;11.362;2024-02-23T09:38:01;4.00;97.40
5605;DHT22;9297;47.258;11.362;2024-02-23T09:40:28;4.00;97.50
5605;DHT22;9297;47.258;11.362;2024-02-23T09:42:56;4.00;96.30
5605;DHT22;9297;47.258;11.362;2024-02-23T09:45:24;4.00;97.10
5605;DHT22;9297;47.258;11.362;2024-02-23T09:47:53;3.90;98.80
5605;DHT22;9297;47.258;11.362;2024-02-23T09:50:22;4.00;96.70
5605;DHT22;9297;47.258;11.362;2024-02-23T09:52:50;4.00;97.40
5605;DHT22;9297;47.258;11.362;2024-02-23T09:55:18;4.00;99.30
5605;DHT22;9297;47.258;11.362;2024-02-23T09:57:47;4.20;97.60
5605;DHT22;9297;47.258;11.362;2024-02-23T10:00:15;4.20;96.20
5605;DHT22;9297;47.258;11.362;2024-02-23T10:02:43;4.20;95.90
5605;DHT22;9297;47.258;11.362;2024-02-23T10:05:10;4.00;96.30
5605;DHT22;9297;47.258;11.362;2024-02-23T10:07:38;4.10;96.30
5605;DHT22;9297;47.258;11.362;2024-02-23T10:10:07;4.10;95.90
5605;DHT22;9297;47.258;11.362;2024-02-23T10:12:35;4.10;96.00
5605;DHT22;9297;47.258;11.362;2024-02-23T10:15:02;4.10;95.40
5605;DHT22;9297;47.258;11.362;2024-02-23T10:17:29;4.10;95.70
5605;DHT22;9297;47.258;11.362;2024-02-23T10:19:59;4.10;95.60
5605;DHT22;9297;47.258;11.362;2024-02-23T10:22:26;4.20;95.30
5605;DHT22;9297;47.258;11.362;2024-02-23T10:24:53;4.10;95.70
5605;DHT22;9297;47.258;11.362;2024-02-23T10:27:21;4.20;94.90
5605;DHT22;9297;47.258;11.362;2024-02-23T10:29:50;4.20;95.10
5605;DHT22;9297;47.258;11.362;2024-02-23T10:32:20;4.20;94.40
5605;DHT22;9297;47.258;11.362;2024-02-23T10:34:48;4.20;94.40
5605;DHT22;9297;47.258;11.362;2024-02-23T10:37:15;4.10;95.30
5605;DHT22;9297;47.258;11.362;2024-02-23T10:39:42;4.30;93.90
5605;DHT22;9297;47.258;11.362;2024-02-23T10:42:10;4.20;94.30
5605;DHT22;9297;47.258;11.362;2024-02-23T10:44:37;4.10;95.40
5605;DHT22;9297;47.258;11.362;2024-02-23T10:47:07;4.10;95.50
5605;DHT22;9297;47.258;11.362;2024-02-23T10:49:34;4.10;95.90
5605;DHT22;9297;47.258;11.362;2024-02-23T10:52:04;4.10;95.40
5605;DHT22;9297;47.258;11.362;2024-02-23T10:54:31;4.20;94.50
5605;DHT22;9297;47.258;11.362;2024-02-23T10:57:00;4.10;95.60
5605;DHT22;9297;47.258;11.362;2024-02-23T10:59:27;4.00;95.90
5605;DHT22;9297;47.258;11.362;2024-02-23T11:01:54;4.00;95.40
5605;DHT22;9297;47.258;11.362;2024-02-23T11:04:24;4.10;95.30
5605;DHT22;9297;47.258;11.362;2024-02-23T11:06:53;4.00;95.30
5605;DHT22;9297;47.258;11.362;2024-02-23T11:09:21;4.00;95.70
5605;DHT22;9297;47.258;11.362;2024-02-23T11:11:53;3.90;96.00
5605;DHT22;9297;47.258;11.362;2024-02-23T11:14:30;3.90;95.60
5605;DHT22;9297;47.258;11.362;2024-02-23T11:16:57;4.00;96.60
5605;DHT22;9297;47.258;11.362;2024-02-23T11:19:34;4.00;95.70
5605;DHT22;9297;47.258;11.362;2024-02-23T11:22:01;3.90;95.80
5605;DHT22;9297;47.258;11.362;2024-02-23T11:24:29;3.70;98.30
5605;DHT22;9297;47.258;11.362;2024-02-23T11:26:59;3.70;98.70
5605;DHT22;9297;47.258;11.362;2024-02-23T11:29:27;3.70;98.70
5605;DHT22;9297;47.258;11.362;2024-02-23T11:31:55;3.60;99.90
5605;DHT22;9297;47.258;11.362;2024-02-23T11:34:22;3.60;99.50
5605;DHT22;9297;47.258;11.362;2024-02-23T11:36:52;3.70;98.80
5605;DHT22;9297;47.258;11.362;2024-02-23T11:39:19;3.60;99.40
5605;DHT22;9297;47.258;11.362;2024-02-23T11:41:48;3.70;99.70
5605;DHT22;9297;47.258;11.362;2024-02-23T11:44:15;3.60;99.90
5605;DHT22;9297;47.258;11.362;2024-02-23T11:46:43;3.70;99.90
5605;DHT22;9297;47.258;11.362;2024-02-23T11:49:10;3.60;99.90
5605;DHT22;9297;47.258;11.362;2024-02-23T11:51:37;3.80;99.60
5605;DHT22;9297;47.258;11.362;2024-02-23T11:54:06;3.70;99.30
5605;DHT22;9297;47.258;11.362;2024-02-23T11:56:33;3.70;97.70
5605;DHT22;9297;47.258;11.362;2024-02-23T11:59:00;3.70;99.00
5605;DHT22;9297;47.258;11.362;2024-02-23T12:01:29;3.90;98.60
5605;DHT22;9297;47.258;11.362;2024-02-23T12:03:56;3.90;98.60
5605;DHT22;9297;47.258;11.362;2024-02-23T12:06:23;3.90;97.80
5605;DHT22;9297;47.258;11.362;2024-02-23T12:08:50;4.10;96.90
5605;DHT22;9297;47.258;11.362;2024-02-23T12:11:18;4.10;96.60
5605;DHT22;9297;47.258;11.362;2024-02-23T12:13:46;4.20;95.80
5605;DHT22;9297;47.258;11.362;2024-02-23T12:16:14;4.20;95.20
5605;DHT22;9297;47.258;11.362;2024-02-23T12:18:41;4.10;96.30
5605;DHT22;9297;47.258;11.362;2024-02-23T12:21:09;4.20;96.20
5605;DHT22;9297;47.258;11.362;2024-02-23T12:23:43;4.20;95.80
5605;DHT22;9297;47.258;11.362;2024-02-23T12:26:12;4.30;95.50
5605;DHT22;9297;47.258;11.362;2024-02-23T12:28:41;4.30;95.80
5605;DHT22;9297;47.258;11.362;2024-02-23T12:31:08;4.30;94.30
5605;DHT22;9297;47.258;11.362;2024-02-23T12:33:36;4.30;95.20
5605;DHT22;9297;47.258;11.362;2024-02-23T12:36:04;4.30;94.20
5605;DHT22;9297;47.258;11.362;2024-02-23T12:38:32;4.30;93.90
5605;DHT22;9297;47.258;11.362;2024-02-23T12:41:00;4.30;93.50
5605;DHT22;9297;47.258;11.362;2024-02-23T12:43:27;4.20;94.70
5605;DHT22;9297;47.258;11.362;2024-02-23T12:45:56;4.20;95.30
5605;DHT22;9297;47.258;11.362;2024-02-23T12:48:24;4.20;95.00
5605;DHT22;9297;47.258;11.362;2024-02-23T12:50:52;4.20;96.00
5605;DHT22;9297;47.258;11.362;2024-02-23T12:53:31;4.10;96.10
5605;DHT22;9297;47.258;11.362;2024-02-23T12:55:58;4.20;95.60
5605;DHT22;9297;47.258;11.362;2024-02-23T12:58:25;4.20;94.70
5605;DHT22;9297;47.258;11.362;2024-02-23T13:00:52;4.10;95.60
5605;DHT22;9297;47.258;11.362;2024-02-23T13:03:21;4.20;95.50
5605;DHT22;9297;47.258;11.362;2024-02-23T13:05:48;4.20;95.00
5605;DHT22;9297;47.258;11.362;2024-02-23T13:08:15;4.10;96.20
5605;DHT22;9297;47.258;11.362;2024-02-23T13:10:42;4.20;96.60
5605;DHT22;9297;47.258;11.362;2024-02-23T13:13:10;4.20;96.40
5605;DHT22;9297;47.258;11.362;2024-02-23T13:15:37;4.10;95.90
5605;DHT22;9297;47.258;11.362;2024-02-23T13:18:04;4.10;96.70
5605;DHT22;9297;47.258;11.362;2024-02-23T13:20:32;4.10;95.80
5605;DHT22;9297;47.258;11.362;2024-02-23T13:22:59;4.10;96.30
5605;DHT22;9297;47.258;11.362;2024-02-23T13:25:27;4.20;96.00
5605;DHT22;9297;47.258;11.362;2024-02-23T13:27:54;4.20;95.30
5605;DHT22;9297;47.258;11.362;2024-02-23T13:30:21;4.00;96.30
5605;DHT22;9297;47.258;11.362;2024-02-23T13:32:48;4.20;97.40
5605;DHT22;9297;47.258;11.362;2024-02-23T13:35:15;4.30;95.80
5605;DHT22;9297;47.258;11.362;2024-02-23T13:37:44;4.30;95.50
5605;DHT22;9297;47.258;11.362;2024-02-23T13:40:11;4.20;96.10
5605;DHT22;9297;47.258;11.362;2024-02-23T13:42:38;4.20;96.00
5605;DHT22;9297;47.258;11.362;2024-02-23T13:45:06;4.30;95.80
5605;DHT22;9297;47.258;11.362;2024-02-23T13:47:34;4.30;94.80
5605;DHT22;9297;47.258;11.362;2024-02-23T13:50:01;4.20;95.50
5605;DHT22;9297;47.258;11.362;2024-02-23T13:52:29;4.10;95.80
5605;DHT22;9297;47.258;11.362;2024-02-23T13:54:57;4.20;95.30
5605;DHT22;9297;47.258;11.362;2024-02-23T13:57:24;4.00;96.00
5605;DHT22;9297;47.258;11.362;2024-02-23T13:59:51;3.70;98.90
5605;DHT22;9297;47.258;11.362;2024-02-23T14:02:25;3.80;98.80
5605;DHT22;9297;47.258;11.362;2024-02-23T14:04:52;3.90;98.60
5605;DHT22;9297;47.258;11.362;2024-02-23T14:07:20;4.00;98.20
5605;DHT22;9297;47.258;11.362;2024-02-23T14:09:48;4.00;97.70
5605;DHT22;9297;47.258;11.362;2024-02-23T14:12:16;4.10;96.30
5605;DHT22;9297;47.258;11.362;2024-02-23T14:14:43;4.10;96.50
5605;DHT22;9297;47.258;11.362;2024-02-23T14:17:10;3.90;96.90
5605;DHT22;9297;47.258;11.362;2024-02-23T14:19:37;4.00;96.90
5605;DHT22;9297;47.258;11.362;2024-02-23T14:22:05;4.00;97.00
5605;DHT22;9297;47.258;11.362;2024-02-23T14:24:32;3.90;98.00
5605;DHT22;9297;47.258;11.362;2024-02-23T14:26:59;4.10;98.90
5605;DHT22;9297;47.258;11.362;2024-02-23T14:29:27;4.20;97.90
5605;DHT22;9297;47.258;11.362;2024-02-23T14:31:54;4.20;95.90
5605;DHT22;9297;47.258;11.362;2024-02-23T14:34:21;4.30;96.10
5605;DHT22;9297;47.258;11.362;2024-02-23T14:36:48;4.40;95.40
5605;DHT22;9297;47.258;11.362;2024-02-23T14:39:15;4.20;95.40
5605;DHT22;9297;47.258;11.362;2024-02-23T14:41:42;4.30;96.40
5605;DHT22;9297;47.258;11.362;2024-02-23T14:44:09;4.30;94.90
5605;DHT22;9297;47.258;11.362;2024-02-23T14:46:38;4.30;95.50
5605;DHT22;9297;47.258;11.362;2024-02-23T14:49:08;4.30;95.70
5605;DHT22;9297;47.258;11.362;2024-02-23T14:51:35;4.30;95.40
5605;DHT22;9297;47.258;11.362;2024-02-23T14:54:02;4.40;95.20
5605;DHT22;9297;47.258;11.362;2024-02-23T14:56:29;4.40;95.00
5605;DHT22;9297;47.258;11.362;2024-02-23T14:58:56;4.20;95.80
5605;DHT22;9297;47.258;11.362;2024-02-23T15:01:23;4.30;95.90
5605;DHT22;9297;47.258;11.362;2024-02-23T15:03:51;4.30;96.00
5605;DHT22;9297;47.258;11.362;2024-02-23T15:06:18;4.30;95.60
5605;DHT22;9297;47.258;11.362;2024-02-23T15:08:45;4.30;95.90
5605;DHT22;9297;47.258;11.362;2024-02-23T15:11:12;4.20;95.90
5605;DHT22;9297;47.258;11.362;2024-02-23T15:13:39;4.10;96.60
5605;DHT22;9297;47.258;11.362;2024-02-23T15:16:06;4.10;96.60
5605;DHT22;9297;47.258;11.362;2024-02-23T15:18:33;4.20;96.30
5605;DHT22;9297;47.258;11.362;2024-02-23T15:21:02;4.10;97.10
5605;DHT22;9297;47.258;11.362;2024-02-23T15:23:29;4.00;97.50
5605;DHT22;9297;47.258;11.362;2024-02-23T15:25:56;3.90;97.90
5605;DHT22;9297;47.258;11.362;2024-02-23T15:28:36;4.00;99.70
5605;DHT22;9297;47.258;11.362;2024-02-23T15:31:04;4.10;98.20
5605;DHT22;9297;47.258;11.362;2024-02-23T15:33:31;4.20;97.60
5605;DHT22;9297;47.258;11.362;2024-02-23T15:35:58;4.10;97.70
5605;DHT22;9297;47.258;11.362;2024-02-23T15:38:27;4.00;98.30
5605;DHT22;9297;47.258;11.362;2024-02-23T15:40:54;4.10;97.80
5605;DHT22;9297;47.258;11.362;2024-02-23T15:43:21;4.10;98.30
5605;DHT22;9297;47.258;11.362;2024-02-23T15:45:48;4.00;97.50
5605;DHT22;9297;47.258;11.362;2024-02-23T15:48:15;4.00;98.70
5605;DHT22;9297;47.258;11.362;2024-02-23T15:50:42;4.00;98.50
5605;DHT22;9297;47.258;11.362;2024-02-23T15:53:30;3.90;98.50
5605;DHT22;9297;47.258;11.362;2024-02-23T15:55:57;3.90;98.60
5605;DHT22;9297;47.258;11.362;2024-02-23T15:58:24;3.80;99.90
5605;DHT22;9297;47.258;11.362;2024-02-23T16:00:51;3.60;99.90
5605;DHT22;9297;47.258;11.362;2024-02-23T16:03:18;3.60;99.90